sensor_id;sensor_type;location;lat;lon;timestamp;temperature;humidity
4356;DHT22;64374;51.482;7.408;2023-06-01T00:00:04;20.90;99.90
4356;DHT22;64374;51.482;7.408;2023-06-01T00:02:39;20.90;99.90
4356;DHT22;64374;51.482;7.408;2023-06-01T00:05:09;20.90;99.90
4356;DHT22;64374;51.482;7.408;2023-06-01T00:07:38;20.80;99.90
4356;DHT22;64374;51.482;7.408;2023-06-01T00:10:06;20.70;99.90
4356;DHT22;64374;51.482;7.408;2023-06-01T00:12:37;20.50;99.90
4356;DHT22;64374;51.482;7.408;2023-06-01T00:15:07;20.50;99.90
4356;DHT22;64374;51.482;7.408;2023-06-01T00:17:35;20.40;99.90
4356;DHT22;64374;51.482;7.408;2023-06-01T00:20:05;20.40;99.90
4356;DHT22;64374;51.482;7.408;2023-06-01T00:22:37;20.40;99.90
4356;DHT22;64374;51.482;7.408;2023-06-01T00:25:07;20.10;99.90
4356;DHT22;64374;51.482;7.408;2023-06-01T00:27:36;20.10;99.90
4356;DHT22;64374;51.482;7.408;2023-06-01T00:30:08;19.90;99.90
4356;DHT22;64374;51.482;7.408;2023-06-01T00:32:37;19.90;99.90
4356;DHT22;64374;51.482;7.408;2023-06-01T00:35:06;20.10;99.90
4356;DHT22;64374;51.482;7.408;2023-06-01T00:37:36;20.20;99.90
4356;DHT22;64374;51.482;7.408;2023-06-01T00:40:06;20.20;99.90
4356;DHT22;64374;51.482;7.408;2023-06-01T00:42:34;20.20;99.90
4356;DHT22;64374;51.482;7.408;2023-06-01T00:45:04;20.30;99.90
4356;DHT22;64374;51.482;7.408;2023-06-01T00:47:39;20.30;99.90
4356;DHT22;64374;51.482;7.408;2023-06-01T00:50:10;20.20;99.90
4356;DHT22;64374;51.482;7.408;2023-06-01T00:52:40;20.30;99.90
4356;DHT22;64374;51.482;7.408;2023-06-01T00:55:11;20.20;99.90
4356;DHT22;64374;51.482;7.408;2023-06-01T00:57:42;20.10;99.90
4356;DHT22;64374;51.482;7.408;2023-06-01T01:00:11;19.90;99.90
4356;DHT22;64374;51.482;7.408;2023-06-01T01:02:41;19.80;99.90
4356;DHT22;64374;51.482;7.408;2023-06-01T01:05:15;20.00;99.90
4356;DHT22;64374;51.482;7.408;2023-06-01T01:07:57;19.90;99.90
4356;DHT22;64374;51.482;7.408;2023-06-01T01:10:32;20.00;99.90
4356;DHT22;64374;51.482;7.408;2023-06-01T01:13:10;19.90;99.90
4356;DHT22;64374;51.482;7.408;2023-06-01T01:15:47;19.80;99.90
4356;DHT22;64374;51.482;7.408;2023-06-01T01:18:25;19.60;99.90
4356;DHT22;64374;51.482;7.408;2023-06-01T01:21:01;19.70;99.90
4356;DHT22;64374;51.482;7.408;2023-06-01T01:24:17;19.80;99.90
4356;DHT22;64374;51.482;7.408;2023-06-01T01:27:06;19.90;99.90
4356;DHT22;64374;51.482;7.408;2023-06-01T01:29:40;19.90;99.90
4356;DHT22;64374;51.482;7.408;2023-06-01T01:32:12;19.90;99.90
4356;DHT22;64374;51.482;7.408;2023-06-01T01:34:43;19.80;99.90
4356;DHT22;64374;51.482;7.408;2023-06-01T01:37:14;19.80;99.90
4356;DHT22;64374;51.482;7.408;2023-06-01T01:39:42;19.90;99.90
4356;DHT22;64374;51.482;7.408;2023-06-01T01:42:11;19.80;99.90
4356;DHT22;64374;51.482;7.408;2023-06-01T01:44:44;19.80;99.90
4356;DHT22;64374;51.482;7.408;2023-06-01T01:47:19;19.80;99.90
4356;DHT22;64374;51.482;7.408;2023-06-01T01:49:53;19.70;99.90
4356;DHT22;64374;51.482;7.408;2023-06-01T01:52:31;19.50;99.90
4356;DHT22;64374;51.482;7.408;2023-06-01T01:55:01;19.50;99.90
4356;DHT22;64374;51.482;7.408;2023-06-01T01:57:33;19.60;99.90
4356;DHT22;64374;51.482;7.408;2023-06-01T02:00:05;19.20;99.90
4356;DHT22;64374;51.482;7.408;2023-06-01T02:02:40;19.00;99.90
4356;DHT22;64374;51.482;7.408;2023-06-01T02:05:09;19.00;99.90
4356;DHT22;64374;51.482;7.408;2023-06-01T02:07:38;19.20;99.90
4356;DHT22;64374;51.482;7.408;2023-06-01T02:10:10;19.10;99.90
4356;DHT22;64374;51.482;7.408;2023-06-01T02:12:40;19.00;99.90
4356;DHT22;64374;51.482;7.408;2023-06-01T02:15:09;19.00;99.90
4356;DHT22;64374;51.482;7.408;2023-06-01T02:17:38;19.00;99.90
4356;DHT22;64374;51.482;7.408;2023-06-01T02:20:13;19.00;99.90
4356;DHT22;64374;51.482;7.408;2023-06-01T02:22:42;19.00;99.90
4356;DHT22;64374;51.482;7.408;2023-06-01T02:25:11;18.90;99.90
4356;DHT22;64374;51.482;7.408;2023-06-01T02:27:39;18.80;99.90
4356;DHT22;64374;51.482;7.408;2023-06-01T02:30:10;18.30;99.90
4356;DHT22;64374;51.482;7.408;2023-06-01T02:32:39;18.30;99.90
4356;DHT22;64374;51.482;7.408;2023-06-01T02:35:08;18.10;99.90
4356;DHT22;64374;51.482;7.408;2023-06-01T02:37:37;18.00;99.90
4356;DHT22;64374;51.482;7.408;2023-06-01T02:40:07;18.00;99.90
4356;DHT22;64374;51.482;7.408;2023-06-01T02:42:39;18.10;99.90
4356;DHT22;64374;51.482;7.408;2023-06-01T02:45:09;17.80;99.90
4356;DHT22;64374;51.482;7.408;2023-06-01T02:47:38;17.20;99.90
4356;DHT22;64374;51.482;7.408;2023-06-01T02:50:08;17.30;99.90
4356;DHT22;64374;51.482;7.408;2023-06-01T02:52:41;17.40;99.90
4356;DHT22;64374;51.482;7.408;2023-06-01T02:55:10;17.60;99.90
4356;DHT22;64374;51.482;7.408;2023-06-01T02:58:02;17.70;99.90
4356;DHT22;64374;51.482;7.408;2023-06-01T03:00:43;17.90;99.90
4356;DHT22;64374;51.482;7.408;2023-06-01T03:03:12;18.20;99.90
4356;DHT22;64374;51.482;7.408;2023-06-01T03:05:42;18.30;99.90
4356;DHT22;64374;51.482;7.408;2023-06-01T03:08:38;17.90;99.90
4356;DHT22;64374;51.482;7.408;2023-06-01T03:11:14;17.40;99.90
4356;DHT22;64374;51.482;7.408;2023-06-01T03:13:43;17.40;99.90
4356;DHT22;64374;51.482;7.408;2023-06-01T03:16:13;17.50;99.90
4356;DHT22;64374;51.482;7.408;2023-06-01T03:19:00;17.10;99.90
4356;DHT22;64374;51.482;7.408;2023-06-01T03:21:28;17.30;99.90
4356;DHT22;64374;51.482;7.408;2023-06-01T03:23:59;17.50;99.90
4356;DHT22;64374;51.482;7.408;2023-06-01T03:26:28;17.70;99.90
4356;DHT22;64374;51.482;7.408;2023-06-01T03:28:58;17.70;99.90
4356;DHT22;64374;51.482;7.408;2023-06-01T03:31:30;17.90;99.90
4356;DHT22;64374;51.482;7.408;2023-06-01T03:34:02;17.90;99.90
4356;DHT22;64374;51.482;7.408;2023-06-01T03:36:31;18.20;99.90
4356;DHT22;64374;51.482;7.408;2023-06-01T03:39:00;18.20;99.90
4356;DHT22;64374;51.482;7.408;2023-06-01T03:41:37;18.40;99.90
4356;DHT22;64374;51.482;7.408;2023-06-01T03:44:06;18.30;99.90
4356;DHT22;64374;51.482;7.408;2023-06-01T03:46:36;18.30;99.90
4356;DHT22;64374;51.482;7.408;2023-06-01T03:49:04;18.40;99.90
4356;DHT22;64374;51.482;7.408;2023-06-01T03:51:33;18.50;99.90
4356;DHT22;64374;51.482;7.408;2023-06-01T03:54:06;18.30;99.90
4356;DHT22;64374;51.482;7.408;2023-06-01T03:56:35;18.20;99.90
4356;DHT22;64374;51.482;7.408;2023-06-01T03:59:03;18.20;99.90
4356;DHT22;64374;51.482;7.408;2023-06-01T04:01:35;18.20;99.90
4356;DHT22;64374;51.482;7.408;2023-06-01T04:04:07;18.20;99.90
4356;DHT22;64374;51.482;7.408;2023-06-01T04:06:36;17.90;99.90
4356;DHT22;64374;51.482;7.408;2023-06-01T04:09:04;17.70;99.90
4356;DHT22;64374;51.482;7.408;2023-06-01T04:11:39;17.80;99.90
4356;DHT22;64374;51.482;7.408;2023-06-01T04:14:07;17.60;99.90
4356;DHT22;64374;51.482;7.408;2023-06-01T04:16:37;17.60;99.90
4356;DHT22;64374;51.482;7.408;2023-06-01T04:19:07;17.60;99.90
4356;DHT22;64374;51.482;7.408;2023-06-01T04:21:37;17.90;99.90
4356;DHT22;64374;51.482;7.408;2023-06-01T04:24:06;17.70;99.90
4356;DHT22;64374;51.482;7.408;2023-06-01T04:26:37;17.60;99.90
4356;DHT22;64374;51.482;7.408;2023-06-01T04:29:06;17.20;99.90
4356;DHT22;64374;51.482;7.408;2023-06-01T04:31:37;17.10;99.90
4356;DHT22;64374;51.482;7.408;2023-06-01T04:34:07;17.40;99.90
4356;DHT22;64374;51.482;7.408;2023-06-01T04:36:38;17.10;99.90
4356;DHT22;64374;51.482;7.408;2023-06-01T04:39:08;16.90;99.90
4356;DHT22;64374;51.482;7.408;2023-06-01T04:41:39;17.20;99.90
4356;DHT22;64374;51.482;7.408;2023-06-01T04:44:08;17.30;99.90
4356;DHT22;64374;51.482;7.408;2023-06-01T04:46:37;17.50;99.90
4356;DHT22;64374;51.482;7.408;2023-06-01T04:49:08;17.60;99.90
4356;DHT22;64374;51.482;7.408;2023-06-01T04:51:41;17.70;99.90
4356;DHT22;64374;51.482;7.408;2023-06-01T04:54:10;17.90;99.90
4356;DHT22;64374;51.482;7.408;2023-06-01T04:56:39;18.10;99.90
4356;DHT22;64374;51.482;7.408;2023-06-01T04:59:08;18.10;99.90
4356;DHT22;64374;51.482;7.408;2023-06-01T05:01:38;18.20;99.90
4356;DHT22;64374;51.482;7.408;2023-06-01T05:04:08;18.20;99.90
4356;DHT22;64374;51.482;7.408;2023-06-01T05:06:37;18.20;99.90
4356;DHT22;64374;51.482;7.408;2023-06-01T05:09:05;18.10;99.90
4356;DHT22;64374;51.482;7.408;2023-06-01T05:11:33;18.00;99.90
4356;DHT22;64374;51.482;7.408;2023-06-01T05:14:02;18.10;99.90
4356;DHT22;64374;51.482;7.408;2023-06-01T05:16:32;18.00;99.90
4356;DHT22;64374;51.482;7.408;2023-06-01T05:19:03;18.00;99.90
4356;DHT22;64374;51.482;7.408;2023-06-01T05:21:36;18.10;99.90
4356;DHT22;64374;51.482;7.408;2023-06-01T05:24:04;18.10;99.90
4356;DHT22;64374;51.482;7.408;2023-06-01T05:26:33;18.00;99.90
4356;DHT22;64374;51.482;7.408;2023-06-01T05:29:02;18.00;99.90
4356;DHT22;64374;51.482;7.408;2023-06-01T05:31:31;18.10;99.90
4356;DHT22;64374;51.482;7.408;2023-06-01T05:33:59;18.00;99.90
4356;DHT22;64374;51.482;7.408;2023-06-01T05:36:32;18.00;99.90
4356;DHT22;64374;51.482;7.408;2023-06-01T05:39:01;18.20;99.90
4356;DHT22;64374;51.482;7.408;2023-06-01T05:41:29;18.10;99.90
4356;DHT22;64374;51.482;7.408;2023-06-01T05:43:58;18.10;99.90
4356;DHT22;64374;51.482;7.408;2023-06-01T05:46:27;18.20;99.90
4356;DHT22;64374;51.482;7.408;2023-06-01T05:48:56;18.10;99.90
4356;DHT22;64374;51.482;7.408;2023-06-01T05:51:24;18.10;99.90
4356;DHT22;64374;51.482;7.408;2023-06-01T05:53:56;18.20;99.90
4356;DHT22;64374;51.482;7.408;2023-06-01T05:56:28;17.90;99.90
4356;DHT22;64374;51.482;7.408;2023-06-01T05:58:58;18.00;99.90
4356;DHT22;64374;51.482;7.408;2023-06-01T06:01:27;18.10;99.90
4356;DHT22;64374;51.482;7.408;2023-06-01T06:03:55;17.60;99.90
4356;DHT22;64374;51.482;7.408;2023-06-01T06:06:26;17.80;99.90
4356;DHT22;64374;51.482;7.408;2023-06-01T06:08:56;18.00;99.90
4356;DHT22;64374;51.482;7.408;2023-06-01T06:11:24;17.90;99.90
4356;DHT22;64374;51.482;7.408;2023-06-01T06:13:53;18.10;99.90
4356;DHT22;64374;51.482;7.408;2023-06-01T06:16:22;18.30;99.90
4356;DHT22;64374;51.482;7.408;2023-06-01T06:18:50;18.20;99.90
4356;DHT22;64374;51.482;7.408;2023-06-01T06:21:20;17.90;99.90
4356;DHT22;64374;51.482;7.408;2023-06-01T06:23:49;18.10;99.90
4356;DHT22;64374;51.482;7.408;2023-06-01T06:26:19;18.10;99.90
4356;DHT22;64374;51.482;7.408;2023-06-01T06:28:48;18.10;99.90
4356;DHT22;64374;51.482;7.408;2023-06-01T06:31:17;18.30;99.90
4356;DHT22;64374;51.482;7.408;2023-06-01T06:33:45;18.30;99.90
4356;DHT22;64374;51.482;7.408;2023-06-01T06:36:14;18.20;99.90
4356;DHT22;64374;51.482;7.408;2023-06-01T06:38:43;17.70;99.90
4356;DHT22;64374;51.482;7.408;2023-06-01T06:41:11;18.00;99.90
4356;DHT22;64374;51.482;7.408;2023-06-01T06:43:42;17.90;99.90
4356;DHT22;64374;51.482;7.408;2023-06-01T06:46:10;18.00;99.90
4356;DHT22;64374;51.482;7.408;2023-06-01T06:48:40;17.50;99.90
4356;DHT22;64374;51.482;7.408;2023-06-01T06:51:09;17.10;99.90
4356;DHT22;64374;51.482;7.408;2023-06-01T06:53:39;16.90;99.90
4356;DHT22;64374;51.482;7.408;2023-06-01T06:56:07;17.00;99.90
4356;DHT22;64374;51.482;7.408;2023-06-01T06:58:37;17.50;99.90
4356;DHT22;64374;51.482;7.408;2023-06-01T07:01:07;17.50;99.90
4356;DHT22;64374;51.482;7.408;2023-06-01T07:03:57;17.50;99.90
4356;DHT22;64374;51.482;7.408;2023-06-01T07:06:26;17.60;99.90
4356;DHT22;64374;51.482;7.408;2023-06-01T07:08:55;17.30;99.90
4356;DHT22;64374;51.482;7.408;2023-06-01T07:11:25;17.50;99.90
4356;DHT22;64374;51.482;7.408;2023-06-01T07:13:54;17.40;99.90
4356;DHT22;64374;51.482;7.408;2023-06-01T07:16:26;17.30;99.90
4356;DHT22;64374;51.482;7.408;2023-06-01T07:18:56;17.60;99.90
4356;DHT22;64374;51.482;7.408;2023-06-01T07:21:27;17.70;99.90
4356;DHT22;64374;51.482;7.408;2023-06-01T07:23:55;18.00;99.90
4356;DHT22;64374;51.482;7.408;2023-06-01T07:26:24;17.70;99.90
4356;DHT22;64374;51.482;7.408;2023-06-01T07:28:53;17.40;99.90
4356;DHT22;64374;51.482;7.408;2023-06-01T07:31:25;17.70;99.90
4356;DHT22;64374;51.482;7.408;2023-06-01T07:33:56;17.90;99.90
4356;DHT22;64374;51.482;7.408;2023-06-01T07:36:24;17.70;99.90
4356;DHT22;64374;51.482;7.408;2023-06-01T07:38:54;17.70;99.90
4356;DHT22;64374;51.482;7.408;2023-06-01T07:41:26;17.70;99.90
4356;DHT22;64374;51.482;7.408;2023-06-01T07:43:55;17.70;99.90
4356;DHT22;64374;51.482;7.408;2023-06-01T07:46:23;17.30;99.90
4356;DHT22;64374;51.482;7.408;2023-06-01T07:48:53;17.60;99.90
4356;DHT22;64374;51.482;7.408;2023-06-01T07:51:22;17.40;99.90
4356;DHT22;64374;51.482;7.408;2023-06-01T07:53:51;17.60;99.90
4356;DHT22;64374;51.482;7.408;2023-06-01T07:56:19;17.80;99.90
4356;DHT22;64374;51.482;7.408;2023-06-01T07:58:47;17.60;99.90
4356;DHT22;64374;51.482;7.408;2023-06-01T08:01:17;17.20;99.90
4356;DHT22;64374;51.482;7.408;2023-06-01T08:03:47;16.40;99.90
4356;DHT22;64374;51.482;7.408;2023-06-01T08:06:17;16.30;99.90
4356;DHT22;64374;51.482;7.408;2023-06-01T08:08:53;16.00;99.90
4356;DHT22;64374;51.482;7.408;2023-06-01T08:11:23;16.40;99.90
4356;DHT22;64374;51.482;7.408;2023-06-01T08:13:51;16.80;99.90
4356;DHT22;64374;51.482;7.408;2023-06-01T08:16:20;16.70;99.90
4356;DHT22;64374;51.482;7.408;2023-06-01T08:18:48;16.30;99.90
4356;DHT22;64374;51.482;7.408;2023-06-01T08:21:19;15.90;99.90
4356;DHT22;64374;51.482;7.408;2023-06-01T08:23:47;16.20;99.90
4356;DHT22;64374;51.482;7.408;2023-06-01T08:26:19;16.50;99.90
4356;DHT22;64374;51.482;7.408;2023-06-01T08:28:48;16.90;99.90
4356;DHT22;64374;51.482;7.408;2023-06-01T08:31:21;17.20;99.90
4356;DHT22;64374;51.482;7.408;2023-06-01T08:33:50;17.30;99.90
4356;DHT22;64374;51.482;7.408;2023-06-01T08:36:21;17.30;99.90
4356;DHT22;64374;51.482;7.408;2023-06-01T08:38:50;17.50;99.90
4356;DHT22;64374;51.482;7.408;2023-06-01T08:41:24;17.90;99.90
4356;DHT22;64374;51.482;7.408;2023-06-01T08:43:57;18.20;99.90
4356;DHT22;64374;51.482;7.408;2023-06-01T08:46:26;18.00;99.90
4356;DHT22;64374;51.482;7.408;2023-06-01T08:48:59;17.10;99.90
4356;DHT22;64374;51.482;7.408;2023-06-01T08:51:32;16.90;99.90
4356;DHT22;64374;51.482;7.408;2023-06-01T08:54:02;17.40;99.90
4356;DHT22;64374;51.482;7.408;2023-06-01T08:56:37;17.30;99.90
4356;DHT22;64374;51.482;7.408;2023-06-01T08:59:11;17.60;99.90
4356;DHT22;64374;51.482;7.408;2023-06-01T09:01:40;17.70;99.90
4356;DHT22;64374;51.482;7.408;2023-06-01T09:04:09;17.40;99.90
4356;DHT22;64374;51.482;7.408;2023-06-01T09:06:41;17.50;99.90
4356;DHT22;64374;51.482;7.408;2023-06-01T09:09:11;17.80;99.90
4356;DHT22;64374;51.482;7.408;2023-06-01T09:11:43;18.20;99.90
4356;DHT22;64374;51.482;7.408;2023-06-01T09:14:20;18.50;99.90
4356;DHT22;64374;51.482;7.408;2023-06-01T09:17:06;18.50;99.90
4356;DHT22;64374;51.482;7.408;2023-06-01T09:19:41;18.20;99.90
4356;DHT22;64374;51.482;7.408;2023-06-01T09:22:11;18.20;99.90
4356;DHT22;64374;51.482;7.408;2023-06-01T09:24:40;18.40;99.90
4356;DHT22;64374;51.482;7.408;2023-06-01T09:27:09;18.20;99.90
4356;DHT22;64374;51.482;7.408;2023-06-01T09:29:37;18.20;99.90
4356;DHT22;64374;51.482;7.408;2023-06-01T09:32:24;18.30;99.90
4356;DHT22;64374;51.482;7.408;2023-06-01T09:34:58;18.60;99.90
4356;DHT22;64374;51.482;7.408;2023-06-01T09:37:27;18.80;99.90
4356;DHT22;64374;51.482;7.408;2023-06-01T09:39:58;18.80;99.90
4356;DHT22;64374;51.482;7.408;2023-06-01T09:42:34;18.70;99.90
4356;DHT22;64374;51.482;7.408;2023-06-01T09:45:14;18.80;99.90
4356;DHT22;64374;51.482;7.408;2023-06-01T09:47:44;19.00;99.90
4356;DHT22;64374;51.482;7.408;2023-06-01T09:50:31;19.10;99.90
4356;DHT22;64374;51.482;7.408;2023-06-01T09:53:03;19.20;99.90
4356;DHT22;64374;51.482;7.408;2023-06-01T09:55:33;18.70;99.90
4356;DHT22;64374;51.482;7.408;2023-06-01T09:58:20;18.80;99.90
4356;DHT22;64374;51.482;7.408;2023-06-01T10:00:51;18.90;99.90
4356;DHT22;64374;51.482;7.408;2023-06-01T10:03:21;19.00;99.90
4356;DHT22;64374;51.482;7.408;2023-06-01T10:05:51;18.50;99.90
4356;DHT22;64374;51.482;7.408;2023-06-01T10:08:21;18.30;99.90
4356;DHT22;64374;51.482;7.408;2023-06-01T10:10:50;18.30;99.90
4356;DHT22;64374;51.482;7.408;2023-06-01T10:13:19;18.60;99.90
4356;DHT22;64374;51.482;7.408;2023-06-01T10:15:54;18.60;99.90
4356;DHT22;64374;51.482;7.408;2023-06-01T10:18:23;18.80;99.90
4356;DHT22;64374;51.482;7.408;2023-06-01T10:20:52;19.00;99.90
4356;DHT22;64374;51.482;7.408;2023-06-01T10:23:22;18.90;99.90
4356;DHT22;64374;51.482;7.408;2023-06-01T10:25:59;18.90;99.90
4356;DHT22;64374;51.482;7.408;2023-06-01T10:28:34;18.80;99.90
4356;DHT22;64374;51.482;7.408;2023-06-01T10:31:31;18.60;99.90
4356;DHT22;64374;51.482;7.408;2023-06-01T10:34:00;18.90;99.90
4356;DHT22;64374;51.482;7.408;2023-06-01T10:39:36;19.40;99.90
4356;DHT22;64374;51.482;7.408;2023-06-01T10:42:37;19.50;99.90
4356;DHT22;64374;51.482;7.408;2023-06-01T10:45:36;19.20;99.90
4356;DHT22;64374;51.482;7.408;2023-06-01T10:48:06;19.00;99.90
4356;DHT22;64374;51.482;7.408;2023-06-01T10:50:35;18.90;99.90
4356;DHT22;64374;51.482;7.408;2023-06-01T10:53:23;19.00;99.90
4356;DHT22;64374;51.482;7.408;2023-06-01T10:56:22;19.40;99.90
4356;DHT22;64374;51.482;7.408;2023-06-01T10:59:12;19.30;99.90
4356;DHT22;64374;51.482;7.408;2023-06-01T11:01:46;19.30;99.90
4356;DHT22;64374;51.482;7.408;2023-06-01T11:04:34;19.40;99.90
4356;DHT22;64374;51.482;7.408;2023-06-01T11:07:38;19.40;99.90
4356;DHT22;64374;51.482;7.408;2023-06-01T11:10:08;19.30;99.90
4356;DHT22;64374;51.482;7.408;2023-06-01T11:13:12;19.10;99.90
4356;DHT22;64374;51.482;7.408;2023-06-01T11:18:49;19.60;99.90
4356;DHT22;64374;51.482;7.408;2023-06-01T11:21:24;19.40;99.90
4356;DHT22;64374;51.482;7.408;2023-06-01T11:23:57;19.40;99.90
4356;DHT22;64374;51.482;7.408;2023-06-01T11:26:30;19.20;99.90
4356;DHT22;64374;51.482;7.408;2023-06-01T11:29:06;19.10;99.90
4356;DHT22;64374;51.482;7.408;2023-06-01T11:31:37;19.40;99.90
4356;DHT22;64374;51.482;7.408;2023-06-01T11:34:06;19.40;99.90
4356;DHT22;64374;51.482;7.408;2023-06-01T11:36:39;19.20;99.90
4356;DHT22;64374;51.482;7.408;2023-06-01T11:39:20;19.10;99.90
4356;DHT22;64374;51.482;7.408;2023-06-01T11:42:04;19.40;99.90
4356;DHT22;64374;51.482;7.408;2023-06-01T11:44:38;19.70;99.90
4356;DHT22;64374;51.482;7.408;2023-06-01T11:47:08;19.80;99.90
4356;DHT22;64374;51.482;7.408;2023-06-01T11:49:42;20.20;99.90
4356;DHT22;64374;51.482;7.408;2023-06-01T11:52:18;20.00;99.90
4356;DHT22;64374;51.482;7.408;2023-06-01T11:54:48;19.70;99.90
4356;DHT22;64374;51.482;7.408;2023-06-01T11:57:18;20.00;99.90
4356;DHT22;64374;51.482;7.408;2023-06-01T11:59:49;20.30;99.90
4356;DHT22;64374;51.482;7.408;2023-06-01T12:02:19;20.10;99.90
4356;DHT22;64374;51.482;7.408;2023-06-01T12:04:56;20.50;99.90
4356;DHT22;64374;51.482;7.408;2023-06-01T12:07:26;20.90;99.90
4356;DHT22;64374;51.482;7.408;2023-06-01T12:09:55;21.20;99.90
4356;DHT22;64374;51.482;7.408;2023-06-01T12:12:25;21.40;99.90
4356;DHT22;64374;51.482;7.408;2023-06-01T12:14:59;21.70;99.90
4356;DHT22;64374;51.482;7.408;2023-06-01T12:17:46;21.80;99.90
4356;DHT22;64374;51.482;7.408;2023-06-01T12:20:28;21.70;99.90
4356;DHT22;64374;51.482;7.408;2023-06-01T12:22:57;21.60;99.90
4356;DHT22;64374;51.482;7.408;2023-06-01T12:25:26;21.80;99.90
4356;DHT22;64374;51.482;7.408;2023-06-01T12:28:05;21.60;99.90
4356;DHT22;64374;51.482;7.408;2023-06-01T12:30:36;21.50;99.90
4356;DHT22;64374;51.482;7.408;2023-06-01T12:33:05;21.30;99.90
4356;DHT22;64374;51.482;7.408;2023-06-01T12:35:47;21.60;99.90
4356;DHT22;64374;51.482;7.408;2023-06-01T12:38:20;21.70;99.90
4356;DHT22;64374;51.482;7.408;2023-06-01T12:41:05;21.80;99.90
4356;DHT22;64374;51.482;7.408;2023-06-01T12:43:34;21.90;99.90
4356;DHT22;64374;51.482;7.408;2023-06-01T12:46:06;22.10;99.90
4356;DHT22;64374;51.482;7.408;2023-06-01T12:48:36;22.10;99.90
4356;DHT22;64374;51.482;7.408;2023-06-01T12:51:05;22.30;99.90
4356;DHT22;64374;51.482;7.408;2023-06-01T12:53:35;22.50;99.90
4356;DHT22;64374;51.482;7.408;2023-06-01T12:56:03;22.30;99.90
4356;DHT22;64374;51.482;7.408;2023-06-01T12:58:34;21.90;99.90
4356;DHT22;64374;51.482;7.408;2023-06-01T13:01:03;22.10;99.90
4356;DHT22;64374;51.482;7.408;2023-06-01T13:03:34;22.20;99.90
4356;DHT22;64374;51.482;7.408;2023-06-01T13:06:10;22.00;99.90
4356;DHT22;64374;51.482;7.408;2023-06-01T13:08:39;21.50;99.90
4356;DHT22;64374;51.482;7.408;2023-06-01T13:11:07;21.70;99.90
4356;DHT22;64374;51.482;7.408;2023-06-01T13:13:42;22.00;99.90
4356;DHT22;64374;51.482;7.408;2023-06-01T13:16:13;22.20;99.90
4356;DHT22;64374;51.482;7.408;2023-06-01T13:18:44;22.30;99.90
4356;DHT22;64374;51.482;7.408;2023-06-01T13:21:13;22.40;99.90
4356;DHT22;64374;51.482;7.408;2023-06-01T13:23:43;22.10;99.90
4356;DHT22;64374;51.482;7.408;2023-06-01T13:26:13;22.40;99.90
4356;DHT22;64374;51.482;7.408;2023-06-01T13:28:42;22.10;99.90
4356;DHT22;64374;51.482;7.408;2023-06-01T13:31:11;22.10;99.90
4356;DHT22;64374;51.482;7.408;2023-06-01T13:33:43;22.20;99.90
4356;DHT22;64374;51.482;7.408;2023-06-01T13:36:12;22.50;99.90
4356;DHT22;64374;51.482;7.408;2023-06-01T13:38:40;22.50;99.90
4356;DHT22;64374;51.482;7.408;2023-06-01T13:41:09;22.50;99.90
4356;DHT22;64374;51.482;7.408;2023-06-01T13:43:37;22.60;99.90
4356;DHT22;64374;51.482;7.408;2023-06-01T13:46:06;22.60;99.90
4356;DHT22;64374;51.482;7.408;2023-06-01T13:48:37;22.30;99.90
4356;DHT22;64374;51.482;7.408;2023-06-01T13:51:06;22.10;99.90
4356;DHT22;64374;51.482;7.408;2023-06-01T13:53:35;22.40;99.90
4356;DHT22;64374;51.482;7.408;2023-06-01T13:57:59;22.80;99.90
4356;DHT22;64374;51.482;7.408;2023-06-01T14:00:28;22.10;99.90
4356;DHT22;64374;51.482;7.408;2023-06-01T14:02:56;21.30;99.90
4356;DHT22;64374;51.482;7.408;2023-06-01T14:05:25;21.00;99.90
4356;DHT22;64374;51.482;7.408;2023-06-01T14:08:11;21.30;99.90
4356;DHT22;64374;51.482;7.408;2023-06-01T14:10:39;21.70;99.90
4356;DHT22;64374;51.482;7.408;2023-06-01T14:13:09;21.50;99.90
4356;DHT22;64374;51.482;7.408;2023-06-01T14:15:37;21.50;99.90
4356;DHT22;64374;51.482;7.408;2023-06-01T14:18:05;21.50;99.90
4356;DHT22;64374;51.482;7.408;2023-06-01T14:20:37;21.20;99.90
4356;DHT22;64374;51.482;7.408;2023-06-01T14:23:05;21.50;99.90
4356;DHT22;64374;51.482;7.408;2023-06-01T14:25:35;21.10;99.90
4356;DHT22;64374;51.482;7.408;2023-06-01T14:28:04;21.80;99.90
4356;DHT22;64374;51.482;7.408;2023-06-01T14:30:36;21.60;99.90
4356;DHT22;64374;51.482;7.408;2023-06-01T14:33:07;21.70;99.90
4356;DHT22;64374;51.482;7.408;2023-06-01T14:35:35;21.90;99.90
4356;DHT22;64374;51.482;7.408;2023-06-01T14:38:04;22.30;99.90
4356;DHT22;64374;51.482;7.408;2023-06-01T14:40:32;22.10;99.90
4356;DHT22;64374;51.482;7.408;2023-06-01T14:43:04;22.10;99.90
4356;DHT22;64374;51.482;7.408;2023-06-01T14:45:33;22.80;99.90
4356;DHT22;64374;51.482;7.408;2023-06-01T14:48:01;23.20;99.90
4356;DHT22;64374;51.482;7.408;2023-06-01T14:50:30;23.30;99.90
4356;DHT22;64374;51.482;7.408;2023-06-01T14:52:58;23.00;99.90
4356;DHT22;64374;51.482;7.408;2023-06-01T14:55:27;23.20;99.90
4356;DHT22;64374;51.482;7.408;2023-06-01T14:57:55;23.50;99.90
4356;DHT22;64374;51.482;7.408;2023-06-01T15:00:24;23.80;99.90
4356;DHT22;64374;51.482;7.408;2023-06-01T15:02:54;23.50;99.90
4356;DHT22;64374;51.482;7.408;2023-06-01T15:05:22;22.40;99.90
4356;DHT22;64374;51.482;7.408;2023-06-01T15:07:50;22.30;99.90
4356;DHT22;64374;51.482;7.408;2023-06-01T15:10:20;22.50;99.90
4356;DHT22;64374;51.482;7.408;2023-06-01T15:12:48;21.80;99.90
4356;DHT22;64374;51.482;7.408;2023-06-01T15:15:18;21.70;99.90
4356;DHT22;64374;51.482;7.408;2023-06-01T15:17:46;21.10;99.90
4356;DHT22;64374;51.482;7.408;2023-06-01T15:20:16;20.50;99.90
4356;DHT22;64374;51.482;7.408;2023-06-01T15:22:44;20.70;99.90
4356;DHT22;64374;51.482;7.408;2023-06-01T15:25:14;21.00;99.90
4356;DHT22;64374;51.482;7.408;2023-06-01T15:27:43;22.20;99.90
4356;DHT22;64374;51.482;7.408;2023-06-01T15:30:13;22.40;99.90
4356;DHT22;64374;51.482;7.408;2023-06-01T15:32:41;22.50;99.90
4356;DHT22;64374;51.482;7.408;2023-06-01T15:35:21;22.50;99.90
4356;DHT22;64374;51.482;7.408;2023-06-01T15:37:51;22.70;99.90
4356;DHT22;64374;51.482;7.408;2023-06-01T15:40:20;22.60;99.90
4356;DHT22;64374;51.482;7.408;2023-06-01T15:42:48;22.70;99.90
4356;DHT22;64374;51.482;7.408;2023-06-01T15:45:16;23.00;99.90
4356;DHT22;64374;51.482;7.408;2023-06-01T15:47:45;22.40;99.90
4356;DHT22;64374;51.482;7.408;2023-06-01T15:50:13;22.20;99.90
4356;DHT22;64374;51.482;7.408;2023-06-01T15:52:43;22.40;99.90
4356;DHT22;64374;51.482;7.408;2023-06-01T15:55:11;22.50;99.90
4356;DHT22;64374;51.482;7.408;2023-06-01T15:57:39;23.00;99.90
4356;DHT22;64374;51.482;7.408;2023-06-01T16:00:08;23.00;99.90
4356;DHT22;64374;51.482;7.408;2023-06-01T16:02:37;23.10;99.90
4356;DHT22;64374;51.482;7.408;2023-06-01T16:05:07;23.30;99.90
4356;DHT22;64374;51.482;7.408;2023-06-01T16:07:35;22.90;99.90
4356;DHT22;64374;51.482;7.408;2023-06-01T16:10:07;22.70;99.90
4356;DHT22;64374;51.482;7.408;2023-06-01T16:12:35;22.70;99.90
4356;DHT22;64374;51.482;7.408;2023-06-01T16:15:04;22.10;99.90
4356;DHT22;64374;51.482;7.408;2023-06-01T16:17:32;22.20;99.90
4356;DHT22;64374;51.482;7.408;2023-06-01T16:20:02;21.80;99.90